Terminal Aerodrome Forecast
Issued by NWS

Home | Current Version | Previous Version | Text Only | Print | Product List | Glossary On
Versions: 1 2 3 4 5 6 7 8 9 10 11 12 13 14 15 16 17 18
000
FTAK31 PAFA 240211 AAB
TAFAQT
TAF AMD
PAQT 240211Z 2402/2424 20011KT P6SM VCSH OVC070
     FM240300 21012KT 3SM -SHRA BR SCT005 OVC015
     FM240800 24010KT 6SM -SHRA BR SCT008 OVC025
     FM241600 25022G30KT 6SM -RA BR SCT008 OVC015=

USA.gov is the U.S. government's official web portal to all federal, state and local government web resources and services.